Time;durP1;ratioP1;P1;durP2;ratioP2;P2;SDS_P1;SDS_P2;PMS_P1;PMS_P2;Temp;Humidity;BMP_temperature;BMP_pressure;BME280_temperature;BME280_humidity;BME280_pressure;Samples;Min_cycle;Max_cycle;Signal;HPM_P1;HPM_P2
2021/06/12 00:02:05;;;;;;;12.60;11.60;;;19.30;99.90;;;;;;4861869;29;20868;-78
2021/06/12 00:04:31;;;;;;;12.07;11.20;;;19.30;99.90;;;;;;4860963;29;20471;-79
2021/06/12 00:06:58;;;;;;;11.97;11.03;;;19.30;99.90;;;;;;4861576;29;20513;-78
2021/06/12 00:09:25;;;;;;;11.60;10.70;;;19.20;99.90;;;;;;4860864;29;20452;-78
2021/06/12 00:11:53;;;;;;;13.00;11.90;;;19.20;99.90;;;;;;4860700;29;20499;-78
2021/06/12 00:14:19;;;;;;;10.90;10.10;;;19.20;99.90;;;;;;4860857;29;20468;-78
2021/06/12 00:16:45;;;;;;;12.83;11.87;;;19.20;99.90;;;;;;4860695;29;20498;-78
2021/06/12 00:19:12;;;;;;;13.20;12.20;;;19.20;99.90;;;;;;4861169;29;20465;-79
2021/06/12 00:21:38;;;;;;;12.53;11.47;;;19.10;99.90;;;;;;4861378;29;20844;-78
2021/06/12 00:24:05;;;;;;;12.80;11.90;;;19.20;99.90;;;;;;4860833;29;20852;-78
2021/06/12 00:26:32;;;;;;;13.00;12.10;;;19.20;99.90;;;;;;4860628;29;20453;-78
2021/06/12 00:28:59;;;;;;;14.10;13.10;;;19.20;99.90;;;;;;4860269;29;20489;-79
2021/06/12 00:31:27;;;;;;;13.07;12.10;;;19.20;99.90;;;;;;4860501;29;20484;-81
2021/06/12 00:33:53;;;;;;;12.90;11.90;;;19.20;99.90;;;;;;4860292;29;20461;-78
2021/06/12 00:36:20;;;;;;;12.53;11.63;;;19.20;99.90;;;;;;4861220;29;20493;-78
2021/06/12 00:38:46;;;;;;;13.90;12.90;;;19.20;99.90;;;;;;4860409;29;20463;-78
2021/06/12 00:41:12;;;;;;;12.57;11.57;;;19.20;99.90;;;;;;4860112;29;20492;-78
2021/06/12 00:43:40;;;;;;;13.17;12.07;;;19.20;99.90;;;;;;4860421;29;20540;-78
2021/06/12 00:46:08;;;;;;;14.33;13.27;;;19.20;99.90;;;;;;4860656;29;20551;-78
2021/06/12 00:48:34;;;;;;;13.30;12.30;;;19.10;99.90;;;;;;4860273;29;20457;-78
2021/06/12 00:51:01;;;;;;;12.97;11.87;;;19.10;99.90;;;;;;4860209;29;20481;-78
2021/06/12 00:53:37;;;;;;;13.67;12.50;;;19.10;99.90;;;;;;4860214;29;20478;-78
2021/06/12 00:56:04;;;;;;;13.73;12.73;;;19.00;99.90;;;;;;4860136;29;20484;-78
2021/06/12 00:58:33;;;;;;;13.13;12.23;;;19.00;99.90;;;;;;4860148;29;20956;-78
2021/06/12 01:00:59;;;;;;;13.10;12.13;;;19.00;99.90;;;;;;4859717;29;20484;-79
2021/06/12 01:03:28;;;;;;;13.80;12.70;;;18.90;99.90;;;;;;4860073;29;20472;-78
2021/06/12 01:05:55;;;;;;;12.70;11.87;;;18.90;99.90;;;;;;4859758;29;20524;-78
2021/06/12 01:08:21;;;;;;;13.90;12.90;;;18.80;99.90;;;;;;4856558;29;72116;-78
2021/06/12 01:10:48;;;;;;;14.23;13.13;;;18.80;99.90;;;;;;4860506;29;20481;-78
2021/06/12 01:13:25;;;;;;;13.40;12.40;;;18.80;99.90;;;;;;4860970;29;20464;-78
2021/06/12 01:15:58;;;;;;;13.40;12.40;;;18.70;99.90;;;;;;4860071;29;20999;-78
2021/06/12 01:18:31;;;;;;;15.07;13.97;;;18.70;99.90;;;;;;4860552;29;20468;-80
2021/06/12 01:21:10;;;;;;;14.03;12.83;;;18.70;99.90;;;;;;4860305;29;20478;-78
2021/06/12 01:24:16;;;;;;;13.80;12.80;;;18.70;99.90;;;;;;4860409;29;20472;-78
2021/06/12 01:26:49;;;;;;;14.93;13.93;;;18.70;99.90;;;;;;4860259;29;20456;-78
2021/06/12 01:29:28;;;;;;;15.07;13.87;;;18.60;99.90;;;;;;4860505;29;20444;-78
2021/06/12 01:31:58;;;;;;;14.67;13.40;;;18.60;99.90;;;;;;4860092;29;20494;-78
2021/06/12 01:34:25;;;;;;;13.60;12.60;;;18.60;99.90;;;;;;4860687;29;20461;-78
2021/06/12 01:36:52;;;;;;;14.50;13.50;;;18.50;99.90;;;;;;4860396;29;20540;-78
2021/06/12 01:39:23;;;;;;;13.93;13.00;;;18.50;99.90;;;;;;4860550;29;20500;-78
2021/06/12 01:41:52;;;;;;;13.73;12.83;;;18.50;99.90;;;;;;4860244;29;20500;-78
2021/06/12 01:44:19;;;;;;;16.57;15.00;;;18.50;99.90;;;;;;4860418;29;20981;-77
2021/06/12 01:46:47;;;;;;;14.87;13.77;;;18.50;99.90;;;;;;4863218;29;20513;-78
2021/06/12 01:49:17;;;;;;;14.77;13.77;;;18.40;99.90;;;;;;4863449;29;20460;-78
2021/06/12 01:51:44;;;;;;;14.27;13.27;;;18.50;99.90;;;;;;4863103;29;20476;-78
2021/06/12 01:54:11;;;;;;;14.47;13.47;;;18.50;99.90;;;;;;4863076;29;20460;-78
2021/06/12 01:56:40;;;;;;;14.50;13.40;;;18.40;99.90;;;;;;4863278;29;20962;-78
2021/06/12 01:59:06;;;;;;;13.57;12.50;;;18.40;99.90;;;;;;4863416;29;20465;-78
2021/06/12 02:01:35;;;;;;;15.47;14.13;;;18.40;99.90;;;;;;4863028;29;20543;-78
2021/06/12 02:04:02;;;;;;;13.43;12.53;;;18.40;99.90;;;;;;4862796;29;20469;-78
2021/06/12 02:06:31;;;;;;;14.43;13.30;;;18.40;99.90;;;;;;4863623;29;20471;-78
2021/06/12 02:08:58;;;;;;;14.70;13.60;;;18.40;99.90;;;;;;4862830;29;20500;-78
2021/06/12 02:11:25;;;;;;;13.53;12.53;;;18.30;99.90;;;;;;4862718;29;20480;-78
2021/06/12 02:13:53;;;;;;;14.20;13.17;;;18.30;99.90;;;;;;4863168;29;20471;-78
2021/06/12 02:16:22;;;;;;;12.87;11.87;;;18.30;99.90;;;;;;4863350;29;20491;-78
2021/06/12 02:18:50;;;;;;;14.60;13.40;;;18.30;99.90;;;;;;4863189;29;20459;-78
2021/06/12 02:21:19;;;;;;;14.63;13.43;;;18.30;99.90;;;;;;4862903;29;20484;-80
2021/06/12 02:23:48;;;;;;;13.97;12.80;;;18.20;99.90;;;;;;4863704;29;20464;-80
2021/06/12 02:26:16;;;;;;;14.13;13.10;;;18.20;99.90;;;;;;4863595;29;20464;-80
2021/06/12 02:28:43;;;;;;;15.60;14.17;;;18.20;99.90;;;;;;4866993;29;20459;-78
2021/06/12 02:31:16;;;;;;;14.40;13.30;;;18.20;99.90;;;;;;4866631;29;20493;-78
2021/06/12 02:33:45;;;;;;;14.03;13.03;;;18.20;99.90;;;;;;4871249;29;20467;-77
2021/06/12 02:36:11;;;;;;;17.13;15.87;;;18.20;99.90;;;;;;4872769;29;20487;-78
2021/06/12 02:38:38;;;;;;;15.97;14.70;;;18.10;99.90;;;;;;4873726;29;20460;-78
2021/06/12 02:41:06;;;;;;;15.47;14.10;;;18.10;99.90;;;;;;4874149;29;20483;-78
2021/06/12 02:43:32;;;;;;;16.77;15.40;;;18.10;99.90;;;;;;4873503;29;20493;-77
2021/06/12 02:46:01;;;;;;;16.70;15.40;;;18.10;99.90;;;;;;4867405;29;20475;-78
2021/06/12 02:48:32;;;;;;;15.73;14.63;;;18.00;99.90;;;;;;4866682;29;20835;-78
2021/06/12 02:51:00;;;;;;;15.37;14.27;;;18.00;99.90;;;;;;4866203;29;20480;-78
2021/06/12 02:53:33;;;;;;;14.83;13.63;;;18.00;99.90;;;;;;4865483;29;20472;-78
2021/06/12 02:56:01;;;;;;;15.20;14.10;;;17.90;99.90;;;;;;4865096;29;20539;-78
2021/06/12 02:58:30;;;;;;;14.70;13.60;;;17.90;99.90;;;;;;4865962;29;20468;-78
2021/06/12 03:00:57;;;;;;;15.67;14.27;;;17.90;99.90;;;;;;4866149;29;20484;-78
2021/06/12 03:03:25;;;;;;;14.10;13.00;;;17.90;99.90;;;;;;4866093;29;20526;-78
2021/06/12 03:05:55;;;;;;;14.23;13.23;;;17.90;99.90;;;;;;4865895;29;20463;-78
2021/06/12 03:08:24;;;;;;;14.33;13.23;;;17.90;99.90;;;;;;4865617;29;20471;-78
2021/06/12 03:10:53;;;;;;;15.70;14.33;;;17.90;99.90;;;;;;4865559;29;20555;-78
2021/06/12 03:13:23;;;;;;;16.13;14.93;;;17.80;99.90;;;;;;4865417;29;20470;-77
2021/06/12 03:15:53;;;;;;;16.23;15.03;;;17.80;99.90;;;;;;4865840;29;20515;-78
2021/06/12 03:18:19;;;;;;;15.17;13.90;;;17.80;99.90;;;;;;4865502;29;20504;-78
2021/06/12 03:20:46;;;;;;;16.10;14.57;;;17.80;99.90;;;;;;4866012;29;20484;-78
2021/06/12 03:23:14;;;;;;;15.20;14.20;;;17.70;99.90;;;;;;4865530;29;20463;-78
2021/06/12 03:25:40;;;;;;;14.57;13.57;;;17.70;99.90;;;;;;4865568;29;20464;-78
2021/06/12 03:28:06;;;;;;;14.73;13.63;;;17.70;99.90;;;;;;4865821;29;20520;-78
2021/06/12 03:30:33;;;;;;;15.77;14.40;;;17.70;99.90;;;;;;4865870;29;20487;-78
2021/06/12 03:33:04;;;;;;;13.87;12.87;;;17.60;99.90;;;;;;4865160;29;20523;-78
2021/06/12 03:35:32;;;;;;;14.30;13.17;;;17.60;99.90;;;;;;4865553;29;20470;-78
2021/06/12 03:37:58;;;;;;;15.73;14.43;;;17.60;99.90;;;;;;4865294;29;20922;-78
2021/06/12 03:40:25;;;;;;;17.03;15.60;;;17.60;99.90;;;;;;4865423;29;20487;-78
2021/06/12 03:42:53;;;;;;;14.93;13.83;;;17.60;99.90;;;;;;4865231;29;20491;-78
2021/06/12 03:45:21;;;;;;;15.10;13.90;;;17.60;99.90;;;;;;4864836;29;20463;-78
2021/06/12 03:47:49;;;;;;;14.63;13.33;;;17.50;99.90;;;;;;4865512;29;20471;-78
2021/06/12 03:50:18;;;;;;;15.27;14.17;;;17.50;99.90;;;;;;4865349;29;20460;-78
2021/06/12 03:52:46;;;;;;;15.80;14.50;;;17.50;99.90;;;;;;4864954;29;20444;-78
2021/06/12 03:55:12;;;;;;;14.60;13.50;;;17.50;99.90;;;;;;4864614;29;20462;-78
2021/06/12 03:57:39;;;;;;;15.70;14.50;;;17.50;99.90;;;;;;4865236;29;20499;-78
2021/06/12 04:00:08;;;;;;;16.87;15.57;;;17.50;99.90;;;;;;4865189;29;20463;-78
2021/06/12 04:02:35;;;;;;;15.93;14.73;;;17.50;99.90;;;;;;4864084;29;20469;-78
2021/06/12 04:05:01;;;;;;;16.10;14.80;;;17.50;99.90;;;;;;4864954;29;20467;-78
2021/06/12 04:07:30;;;;;;;15.13;13.93;;;17.50;99.90;;;;;;4872661;29;20539;-79
2021/06/12 04:09:56;;;;;;;16.50;15.20;;;17.50;99.90;;;;;;4878868;29;20452;-79
2021/06/12 04:12:22;;;;;;;17.60;16.10;;;17.50;99.90;;;;;;4875117;29;20471;-80
2021/06/12 04:14:49;;;;;;;16.23;14.87;;;17.50;99.90;;;;;;4865331;29;20474;-80
2021/06/12 04:17:16;;;;;;;16.13;14.97;;;17.50;99.90;;;;;;4865063;29;21096;-80
2021/06/12 04:19:42;;;;;;;15.20;13.93;;;17.50;99.90;;;;;;4865072;29;20463;-80
2021/06/12 04:22:09;;;;;;;14.60;13.53;;;17.60;99.90;;;;;;4865464;29;20550;-80
2021/06/12 04:24:37;;;;;;;15.40;14.07;;;17.50;99.90;;;;;;4865069;29;20483;-80
2021/06/12 04:27:04;;;;;;;15.50;14.30;;;17.50;99.90;;;;;;4865515;29;20881;-78
2021/06/12 04:29:30;;;;;;;14.90;13.60;;;17.50;99.90;;;;;;4864890;29;20468;-78
2021/06/12 04:31:56;;;;;;;16.50;15.17;;;17.60;99.90;;;;;;4863742;29;20479;-78
2021/06/12 04:34:23;;;;;;;16.10;15.00;;;17.60;99.90;;;;;;4864723;29;20463;-78
2021/06/12 04:36:49;;;;;;;14.60;13.50;;;17.60;99.90;;;;;;4864492;29;20583;-78
2021/06/12 04:39:16;;;;;;;16.43;15.20;;;17.70;99.90;;;;;;4865005;29;20463;-78
2021/06/12 04:41:44;;;;;;;15.53;14.33;;;17.60;99.90;;;;;;4864062;29;20484;-78
2021/06/12 04:44:10;;;;;;;15.83;14.60;;;17.70;99.90;;;;;;4864668;29;20496;-78
2021/06/12 04:46:37;;;;;;;15.57;14.47;;;17.70;99.90;;;;;;4864365;29;20472;-78
2021/06/12 04:49:03;;;;;;;15.00;13.90;;;17.80;99.90;;;;;;4864111;29;20523;-78
2021/06/12 04:51:29;;;;;;;15.03;13.90;;;17.90;99.90;;;;;;4863881;29;20484;-78
2021/06/12 04:53:55;;;;;;;15.07;13.77;;;17.90;99.90;;;;;;4864331;29;20833;-78
2021/06/12 04:56:22;;;;;;;14.27;13.10;;;18.00;99.90;;;;;;4864602;29;20955;-78
2021/06/12 04:58:49;;;;;;;15.37;14.00;;;18.10;99.90;;;;;;4864305;29;20955;-78
2021/06/12 05:01:15;;;;;;;15.07;13.67;;;18.20;99.90;;;;;;4864461;29;20978;-78
2021/06/12 05:03:42;;;;;;;14.13;12.80;;;18.30;99.90;;;;;;4864253;29;20464;-78
2021/06/12 05:06:08;;;;;;;14.50;13.30;;;18.30;99.90;;;;;;4864830;29;20497;-78
2021/06/12 05:08:34;;;;;;;13.40;12.20;;;18.40;99.90;;;;;;4864211;29;20475;-78
2021/06/12 05:11:00;;;;;;;14.30;13.10;;;18.50;99.90;;;;;;4864319;29;20484;-78
2021/06/12 05:13:27;;;;;;;13.83;12.77;;;18.60;99.90;;;;;;4864042;29;20466;-78
2021/06/12 05:15:55;;;;;;;13.57;12.67;;;18.60;99.90;;;;;;4864608;29;20464;-78
2021/06/12 05:18:28;;;;;;;13.83;12.93;;;18.70;99.90;;;;;;4864678;29;20499;-78
2021/06/12 05:20:54;;;;;;;15.00;14.00;;;18.80;99.90;;;;;;4864113;29;20488;-78
2021/06/12 05:23:21;;;;;;;14.53;13.47;;;18.80;99.90;;;;;;4864152;29;20903;-78
2021/06/12 05:25:47;;;;;;;14.20;13.03;;;18.90;99.90;;;;;;4864075;29;20472;-78
2021/06/12 05:28:13;;;;;;;14.80;13.80;;;19.00;99.90;;;;;;4863873;29;20457;-78
2021/06/12 05:30:39;;;;;;;13.30;12.40;;;19.10;99.90;;;;;;4863706;29;20480;-78
2021/06/12 05:33:07;;;;;;;12.87;11.97;;;19.20;99.90;;;;;;4863614;29;20453;-78
2021/06/12 05:35:33;;;;;;;12.63;11.73;;;19.30;99.90;;;;;;4864074;29;20840;-78
2021/06/12 05:38:02;;;;;;;14.30;13.20;;;19.40;99.90;;;;;;4863924;29;20493;-78
2021/06/12 05:40:28;;;;;;;14.77;13.67;;;19.50;99.90;;;;;;4863752;29;20480;-78
2021/06/12 05:42:55;;;;;;;14.23;13.23;;;19.50;99.90;;;;;;4863818;29;20472;-78
2021/06/12 05:45:21;;;;;;;13.50;12.43;;;19.50;99.90;;;;;;4864096;29;20462;-78
2021/06/12 05:47:47;;;;;;;12.63;11.63;;;19.60;99.90;;;;;;4864071;29;20499;-78
2021/06/12 05:50:15;;;;;;;12.47;11.57;;;19.70;99.90;;;;;;4864031;29;20461;-78
2021/06/12 05:52:41;;;;;;;12.97;12.07;;;19.80;99.90;;;;;;4863609;29;20601;-78
2021/06/12 05:55:08;;;;;;;12.83;11.83;;;19.80;99.90;;;;;;4864035;29;20477;-78
2021/06/12 05:57:34;;;;;;;12.40;11.50;;;20.00;99.90;;;;;;4863452;29;20495;-78
2021/06/12 06:00:01;;;;;;;12.03;11.20;;;20.10;99.90;;;;;;4863051;29;20461;-78
2021/06/12 06:02:27;;;;;;;11.17;10.37;;;20.30;99.90;;;;;;4861692;29;20474;-78
2021/06/12 06:04:53;;;;;;;13.47;12.47;;;20.40;99.90;;;;;;4861813;29;20828;-78
2021/06/12 06:07:21;;;;;;;13.17;12.00;;;20.60;99.90;;;;;;4861733;29;20480;-78
2021/06/12 06:09:47;;;;;;;12.87;11.97;;;20.70;99.90;;;;;;4861280;29;20488;-78
2021/06/12 06:12:13;;;;;;;12.20;11.40;;;20.80;99.90;;;;;;4861372;29;20482;-78
2021/06/12 06:14:39;;;;;;;12.27;11.47;;;21.00;99.90;;;;;;4861630;29;20461;-78
2021/06/12 06:17:06;;;;;;;12.87;11.87;;;21.10;99.90;;;;;;4861295;29;21015;-78
2021/06/12 06:19:32;;;;;;;12.60;11.53;;;21.20;99.90;;;;;;4861407;29;20458;-78
2021/06/12 06:21:58;;;;;;;11.33;10.43;;;21.30;99.90;;;;;;4860712;29;20473;-78
2021/06/12 06:24:26;;;;;;;12.90;12.00;;;21.40;99.90;;;;;;4861148;29;20532;-78
2021/06/12 06:26:52;;;;;;;13.50;12.50;;;21.50;99.90;;;;;;4862089;29;20469;-78
2021/06/12 06:29:18;;;;;;;12.33;11.33;;;21.50;99.90;;;;;;4861778;29;20469;-81
2021/06/12 06:31:45;;;;;;;12.63;11.40;;;21.50;99.90;;;;;;4861511;29;20569;-78
2021/06/12 06:34:11;;;;;;;12.27;11.10;;;21.50;99.90;;;;;;4861662;29;20880;-79
2021/06/12 06:36:38;;;;;;;12.00;11.20;;;21.50;99.90;;;;;;4861355;29;20454;-79
2021/06/12 06:39:04;;;;;;;11.80;10.70;;;21.60;99.90;;;;;;4861161;29;20453;-78
2021/06/12 06:41:32;;;;;;;11.87;11.00;;;21.70;99.90;;;;;;4861019;29;20493;-79
2021/06/12 06:43:59;;;;;;;12.57;11.70;;;21.70;99.90;;;;;;4861570;29;20462;-78
2021/06/12 06:46:25;;;;;;;11.40;10.70;;;21.80;99.90;;;;;;4861061;29;20464;-79
2021/06/12 06:48:52;;;;;;;10.60;9.80;;;21.80;99.90;;;;;;4864938;29;20558;-79
2021/06/12 06:51:18;;;;;;;10.97;10.27;;;21.90;99.90;;;;;;4868851;29;20997;-79
2021/06/12 06:53:44;;;;;;;10.50;9.77;;;21.90;99.90;;;;;;4870462;29;20944;-79
2021/06/12 06:56:10;;;;;;;11.43;10.63;;;22.10;99.90;;;;;;4869565;29;20455;-79
2021/06/12 06:58:38;;;;;;;11.60;10.70;;;22.10;99.90;;;;;;4870782;29;20505;-79
2021/06/12 07:01:05;;;;;;;11.17;10.43;;;22.20;99.90;;;;;;4870381;29;20482;-79
2021/06/12 07:03:31;;;;;;;10.90;10.27;;;22.30;99.90;;;;;;4868853;29;20490;-79
2021/06/12 07:05:58;;;;;;;11.30;10.50;;;22.40;99.90;;;;;;4870167;29;20443;-79
2021/06/12 07:08:24;;;;;;;11.47;10.60;;;22.40;99.90;;;;;;4869903;29;20527;-79
2021/06/12 07:10:50;;;;;;;11.70;10.90;;;22.50;99.90;;;;;;4868885;29;20471;-79
2021/06/12 07:13:20;;;;;;;12.20;11.20;;;22.70;99.90;;;;;;4872148;29;20459;-79
2021/06/12 07:15:47;;;;;;;11.70;10.80;;;22.70;99.90;;;;;;4874642;29;20455;-79
2021/06/12 07:18:14;;;;;;;10.27;9.57;;;22.90;99.90;;;;;;4868257;29;20491;-79
2021/06/12 07:20:41;;;;;;;8.93;8.43;;;22.90;99.90;;;;;;4872516;29;20469;-79
2021/06/12 07:23:07;;;;;;;9.57;8.90;;;23.00;99.90;;;;;;4871180;29;20459;-79
2021/06/12 07:25:33;;;;;;;10.10;9.47;;;23.20;99.90;;;;;;4873605;29;20460;-79
2021/06/12 07:28:00;;;;;;;9.70;9.00;;;23.30;99.90;;;;;;4882524;29;20474;-78
2021/06/12 07:30:26;;;;;;;10.10;9.20;;;23.40;99.90;;;;;;4882606;29;20570;-79
2021/06/12 07:32:54;;;;;;;9.13;8.40;;;23.50;99.90;;;;;;4882114;29;20467;-79
2021/06/12 07:35:20;;;;;;;8.43;7.90;;;23.60;99.90;;;;;;4882292;29;20982;-79
2021/06/12 07:37:46;;;;;;;9.73;8.87;;;23.70;99.90;;;;;;4882430;29;20554;-79
2021/06/12 07:40:13;;;;;;;10.03;9.30;;;23.70;99.90;;;;;;4882429;29;20463;-79
2021/06/12 07:42:39;;;;;;;9.40;8.70;;;23.80;99.90;;;;;;4882534;29;20453;-79
2021/06/12 07:45:07;;;;;;;8.60;7.50;;;23.90;99.90;;;;;;4884527;29;20516;-79
2021/06/12 07:47:33;;;;;;;9.27;8.60;;;24.00;99.90;;;;;;4887138;29;20516;-79
2021/06/12 07:50:01;;;;;;;14.23;10.60;;;24.00;99.80;;;;;;4886915;29;20599;-79
2021/06/12 07:52:27;;;;;;;9.50;8.70;;;24.10;99.90;;;;;;4886704;29;20813;-79
2021/06/12 07:54:54;;;;;;;7.77;7.17;;;24.20;99.90;;;;;;4886674;29;20472;-79
2021/06/12 07:57:20;;;;;;;7.87;7.27;;;24.30;99.80;;;;;;4887169;29;20484;-81
2021/06/12 07:59:46;;;;;;;7.20;6.67;;;24.30;99.90;;;;;;4886756;29;20835;-81
2021/06/12 08:02:12;;;;;;;5.70;5.37;;;24.40;99.90;;;;;;4886510;29;20489;-82
2021/06/12 08:04:39;;;;;;;6.10;5.50;;;24.60;99.60;;;;;;4887142;29;20491;-81
2021/06/12 08:07:07;;;;;;;5.70;5.37;;;24.60;97.50;;;;;;4886601;29;20465;-81
2021/06/12 08:09:34;;;;;;;5.50;5.20;;;24.70;96.70;;;;;;4886661;29;20485;-81
2021/06/12 08:12:00;;;;;;;6.00;5.70;;;24.80;95.50;;;;;;4885865;29;20474;-79
2021/06/12 08:14:26;;;;;;;5.00;4.70;;;24.90;96.10;;;;;;4886525;29;20696;-81
2021/06/12 08:16:53;;;;;;;5.50;5.20;;;25.00;95.10;;;;;;4885817;29;20458;-81
2021/06/12 08:19:19;;;;;;;5.70;5.10;;;25.10;94.10;;;;;;4886020;29;20456;-80
2021/06/12 08:21:46;;;;;;;5.00;4.70;;;25.30;94.70;;;;;;4889065;29;20505;-78
2021/06/12 08:24:13;;;;;;;5.37;4.97;;;25.30;94.50;;;;;;4886940;29;20470;-79
2021/06/12 08:26:41;;;;;;;5.47;5.07;;;25.40;94.60;;;;;;4886108;29;20479;-80
2021/06/12 08:29:07;;;;;;;5.13;4.83;;;25.60;93.50;;;;;;4885681;29;20464;-80
2021/06/12 08:31:34;;;;;;;5.40;5.03;;;25.70;93.70;;;;;;4885592;29;20486;-80
2021/06/12 08:34:01;;;;;;;4.80;4.50;;;25.80;92.80;;;;;;4886059;29;20462;-80
2021/06/12 08:36:27;;;;;;;4.70;4.40;;;25.90;92.20;;;;;;4885654;29;20507;-80
2021/06/12 08:38:53;;;;;;;4.80;4.50;;;25.90;91.70;;;;;;4885457;29;21020;-80
2021/06/12 08:41:21;;;;;;;5.13;4.83;;;26.00;91.80;;;;;;4885447;29;21022;-79
2021/06/12 08:43:48;;;;;;;4.90;4.60;;;25.80;91.40;;;;;;4885804;29;20879;-80
2021/06/12 08:46:14;;;;;;;5.33;4.93;;;25.60;91.50;;;;;;4886034;29;20467;-80
2021/06/12 08:48:41;;;;;;;4.37;4.07;;;25.50;91.80;;;;;;4885522;29;20458;-80
2021/06/12 08:51:07;;;;;;;5.33;4.93;;;25.40;91.70;;;;;;4885228;29;20487;-80
2021/06/12 08:53:36;;;;;;;4.87;4.57;;;25.40;91.40;;;;;;4885163;29;20472;-80
2021/06/12 08:56:02;;;;;;;5.33;4.80;;;25.40;91.20;;;;;;4885563;29;20839;-79
2021/06/12 08:58:30;;;;;;;5.40;5.07;;;25.50;91.30;;;;;;4885364;29;20563;-80
2021/06/12 09:00:56;;;;;;;5.23;4.93;;;25.50;92.40;;;;;;4885733;29;20485;-80
2021/06/12 09:03:24;;;;;;;5.13;4.83;;;25.70;93.00;;;;;;4885695;29;20881;-80
2021/06/12 09:05:53;;;;;;;6.20;5.80;;;25.90;94.30;;;;;;4885833;29;20456;-80
2021/06/12 09:08:21;;;;;;;8.10;7.40;;;26.00;94.40;;;;;;4885457;29;20464;-80
2021/06/12 09:10:56;;;;;;;7.60;7.10;;;26.00;94.70;;;;;;4885258;29;20476;-80
2021/06/12 09:13:41;;;;;;;7.13;6.73;;;26.10;94.90;;;;;;4885104;29;20492;-80
2021/06/12 09:16:09;;;;;;;7.13;6.73;;;26.20;95.20;;;;;;4885106;29;20557;-80
2021/06/12 09:18:37;;;;;;;6.17;5.67;;;26.30;95.10;;;;;;4885011;29;20527;-80
2021/06/12 09:21:04;;;;;;;6.50;6.10;;;26.20;94.90;;;;;;4884839;29;20479;-80
2021/06/12 09:23:39;;;;;;;6.37;5.90;;;26.20;95.20;;;;;;4884880;29;20819;-80
2021/06/12 09:26:07;;;;;;;6.93;6.53;;;26.10;95.30;;;;;;4885197;29;20828;-80
2021/06/12 09:28:51;;;;;;;6.73;6.33;;;26.00;95.50;;;;;;4885614;29;20515;-80
2021/06/12 09:31:23;;;;;;;5.10;4.80;;;26.10;95.60;;;;;;4882596;29;21045;-80
2021/06/12 09:33:50;;;;;;;6.63;6.17;;;26.10;95.30;;;;;;4884589;29;20546;-80
2021/06/12 09:36:16;;;;;;;3.77;3.47;;;26.10;94.80;;;;;;4884331;29;20460;-80
2021/06/12 09:38:43;;;;;;;7.13;4.27;;;26.20;94.70;;;;;;4885464;29;20500;-79
2021/06/12 09:41:27;;;;;;;5.37;4.33;;;26.30;94.10;;;;;;4884823;29;20566;-80
2021/06/12 09:43:56;;;;;;;4.33;4.03;;;26.40;93.20;;;;;;4884503;29;20461;-80
2021/06/12 09:46:46;;;;;;;4.10;3.80;;;26.20;92.30;;;;;;4885180;29;20468;-79
2021/06/12 09:49:16;;;;;;;4.23;4.03;;;26.20;92.60;;;;;;4865628;29;20467;-80
2021/06/12 09:52:01;;;;;;;3.47;3.27;;;26.10;92.60;;;;;;4884343;29;20490;-80
2021/06/12 09:54:34;;;;;;;4.10;3.63;;;26.20;92.90;;;;;;4884792;29;20466;-80
2021/06/12 09:57:00;;;;;;;3.70;3.50;;;26.20;92.40;;;;;;4883941;29;20464;-80
2021/06/12 09:59:37;;;;;;;3.37;3.17;;;26.20;92.70;;;;;;4884298;29;20480;-80
2021/06/12 10:02:03;;;;;;;4.23;3.70;;;26.20;91.90;;;;;;4884434;29;20493;-80
2021/06/12 10:04:29;;;;;;;4.07;3.70;;;26.20;91.10;;;;;;4884889;29;20466;-80
2021/06/12 10:06:57;;;;;;;4.20;3.90;;;26.30;91.60;;;;;;4884162;29;20463;-80
2021/06/12 10:09:24;;;;;;;3.90;3.70;;;26.30;91.80;;;;;;4884017;29;20454;-79
2021/06/12 10:11:50;;;;;;;4.00;3.70;;;26.40;91.50;;;;;;4884348;29;20486;-79
2021/06/12 10:14:19;;;;;;;3.47;3.27;;;26.40;91.00;;;;;;4884414;29;20450;-80
2021/06/12 10:16:48;;;;;;;3.60;3.40;;;26.60;91.40;;;;;;4883994;29;20456;-80
2021/06/12 10:19:16;;;;;;;3.63;3.37;;;26.70;90.30;;;;;;4884286;29;20448;-80
2021/06/12 10:21:43;;;;;;;3.80;3.50;;;26.70;90.20;;;;;;4884080;29;20889;-80
2021/06/12 10:24:10;;;;;;;3.40;3.20;;;26.70;90.40;;;;;;4883781;29;20471;-80
2021/06/12 10:26:36;;;;;;;2.80;2.70;;;26.80;88.90;;;;;;4884562;29;20460;-80
2021/06/12 10:29:04;;;;;;;3.50;3.30;;;26.80;88.50;;;;;;4884347;29;20463;-80
2021/06/12 10:31:34;;;;;;;6.90;4.27;;;26.80;89.20;;;;;;4883998;29;20484;-80
2021/06/12 10:34:03;;;;;;;3.40;3.20;;;27.10;88.30;;;;;;4883958;29;20497;-80
2021/06/12 10:36:31;;;;;;;4.03;3.73;;;27.10;86.90;;;;;;4883719;29;20461;-80
2021/06/12 10:38:57;;;;;;;3.90;3.60;;;27.10;88.60;;;;;;4883825;29;20573;-79
2021/06/12 10:41:26;;;;;;;3.70;3.50;;;27.10;88.90;;;;;;4883349;29;20479;-80
2021/06/12 10:43:54;;;;;;;3.60;3.40;;;27.20;88.70;;;;;;4873812;29;20529;-79
2021/06/12 10:46:23;;;;;;;3.03;2.83;;;27.10;86.90;;;;;;4856845;29;20947;-79
2021/06/12 10:48:52;;;;;;;3.40;3.20;;;27.10;87.80;;;;;;4857498;29;20477;-79
2021/06/12 10:51:46;;;;;;;4.20;3.80;;;27.30;87.60;;;;;;4854478;29;20517;-79
2021/06/12 10:54:19;;;;;;;3.40;3.20;;;27.50;85.20;;;;;;4857986;29;20450;-79
2021/06/12 10:56:48;;;;;;;3.70;3.50;;;27.60;87.00;;;;;;4861463;29;20451;-79
2021/06/12 10:59:52;;;;;;;3.77;3.33;;;27.60;84.50;;;;;;4853714;29;20522;-80
2021/06/12 11:02:25;;;;;;;2.60;2.37;;;27.60;84.20;;;;;;4849986;29;20484;-80
2021/06/12 11:04:55;;;;;;;2.70;2.50;;;27.90;82.40;;;;;;4850214;29;20495;-79
2021/06/12 11:07:28;;;;;;;2.80;2.70;;;28.20;78.40;;;;;;4849998;29;20475;-80
2021/06/12 11:10:11;;;;;;;3.40;3.20;;;28.50;75.40;;;;;;4849661;29;20461;-79
2021/06/12 11:12:37;;;;;;;2.83;2.70;;;28.70;75.70;;;;;;4840407;29;20468;-79
2021/06/12 11:15:11;;;;;;;3.57;3.27;;;28.80;74.90;;;;;;4859782;29;20461;-80
2021/06/12 11:17:38;;;;;;;2.97;2.77;;;28.90;75.00;;;;;;4857456;29;20838;-80
2021/06/12 11:20:26;;;;;;;2.80;2.70;;;29.30;72.30;;;;;;4868054;29;20535;-80
2021/06/12 11:23:00;;;;;;;3.20;2.90;;;29.50;72.20;;;;;;4867466;29;20457;-80
2021/06/12 11:25:55;;;;;;;3.00;2.80;;;29.70;69.10;;;;;;4868475;29;20516;-80
2021/06/12 11:28:36;;;;;;;2.63;2.53;;;29.90;67.10;;;;;;4859588;29;20511;-80
2021/06/12 11:31:25;;;;;;;3.27;3.07;;;30.30;70.80;;;;;;4857633;29;20497;-80
2021/06/12 11:34:10;;;;;;;4.23;3.83;;;30.70;70.30;;;;;;4868191;29;20523;-80
2021/06/12 11:36:37;;;;;;;3.13;2.93;;;30.50;69.50;;;;;;4857578;29;20470;-80
2021/06/12 11:39:04;;;;;;;3.70;3.43;;;30.30;65.60;;;;;;4867762;29;20569;-80
2021/06/12 11:41:31;;;;;;;2.53;2.33;;;30.20;63.50;;;;;;4872878;29;20476;-80
2021/06/12 11:43:59;;;;;;;2.90;2.70;;;30.30;67.00;;;;;;4877803;29;20456;-81
2021/06/12 11:46:32;;;;;;;3.47;3.17;;;30.70;66.90;;;;;;4875538;29;20466;-81
2021/06/12 11:48:59;;;;;;;2.80;2.63;;;31.00;67.20;;;;;;4869495;29;20462;-80
2021/06/12 11:51:30;;;;;;;3.40;3.00;;;31.20;61.90;;;;;;4868384;29;20520;-81
2021/06/12 11:54:10;;;;;;;2.67;2.47;;;30.90;61.70;;;;;;4869188;29;20524;-81
2021/06/12 11:56:38;;;;;;;3.90;3.37;;;31.00;64.20;;;;;;4869096;29;20511;-81
2021/06/12 11:59:06;;;;;;;3.07;2.87;;;31.20;65.30;;;;;;4868608;29;20496;-80
2021/06/12 12:01:41;;;;;;;3.20;3.10;;;31.50;62.30;;;;;;4868100;29;20835;-81
2021/06/12 12:04:17;;;;;;;2.67;2.43;;;31.80;58.50;;;;;;4868765;29;20474;-80
2021/06/12 12:06:48;;;;;;;2.07;1.97;;;31.80;58.90;;;;;;4868588;29;20461;-81
2021/06/12 12:09:23;;;;;;;2.30;2.20;;;31.70;57.70;;;;;;4868297;29;20458;-81
2021/06/12 12:11:51;;;;;;;2.87;2.20;;;31.60;58.00;;;;;;4868203;29;20487;-81
2021/06/12 12:14:17;;;;;;;2.70;2.50;;;31.70;56.70;;;;;;4868634;29;20476;-80
2021/06/12 12:16:45;;;;;;;2.67;2.50;;;31.30;56.40;;;;;;4868461;29;20955;-81
2021/06/12 12:19:11;;;;;;;5.27;3.13;;;31.40;56.90;;;;;;4868268;29;20503;-81
2021/06/12 12:21:41;;;;;;;2.17;2.07;;;31.50;58.00;;;;;;4868006;29;20475;-81
2021/06/12 12:24:09;;;;;;;3.03;2.83;;;31.60;59.60;;;;;;4867672;29;20460;-81
2021/06/12 12:26:38;;;;;;;3.10;2.90;;;31.80;58.00;;;;;;4874762;29;20466;-79
2021/06/12 12:29:08;;;;;;;2.40;2.20;;;31.80;58.50;;;;;;4882736;29;20448;-79
2021/06/12 12:31:42;;;;;;;3.33;3.00;;;31.70;58.90;;;;;;4880810;29;20476;-81
2021/06/12 12:34:08;;;;;;;2.60;2.50;;;31.40;59.70;;;;;;4868805;29;20833;-81
2021/06/12 12:36:42;;;;;;;2.47;2.30;;;31.10;59.20;;;;;;4868138;29;20547;-81
2021/06/12 12:39:09;;;;;;;2.87;2.67;;;31.00;59.80;;;;;;4867375;29;20501;-81
2021/06/12 12:41:37;;;;;;;2.77;2.57;;;31.20;59.80;;;;;;4867582;29;20519;-80
2021/06/12 12:44:08;;;;;;;2.80;2.70;;;31.30;58.50;;;;;;4868343;29;20467;-80